Dubuque, IA

9:51 AM CDT on June 23, 2017 (GMT -0500)
City Hall Annex | | Change Station

Elev 640 ft 42.51 °N, 90.67 °W | Updated 60 seconds ago

Clear
Clear
72.5 °F
Feels Like 74 °F
N
2.0
Wind Variable Wind from North
Gusts 8.0 mph

Today
High -- | Low -- °F
--% Chance of Precip.
Yesterday
High -- | Low -- °F
Precip. -- in
Pressure 29.78 in
Visibility 10.0 miles
Clouds Clear
Heat Index 74 °F
Dew Point 64 °F
Humidity 75%
Rainfall 0.68 in
Snow Depth Not available.
5:26 AM 8:44 PM
Waning Crescent, 0% visible
METAR KDBQ 231353Z 31007KT 10SM CLR 21/17 A2979 RMK AO2 SLP083 T02060167 $
Pressure 29.78 in
Visibility 10.0 miles
Clouds Clear
Heat Index 74 °F
Dew Point 64 °F
Humidity 75%
Rainfall 0.68 in
Snow Depth Not available.
5:26 AM 8:44 PM
Waning Crescent, 0% visible
METAR KDBQ 231353Z 31007KT 10SM CLR 21/17 A2979 RMK AO2 SLP083 T02060167 $

Get Severe Weather Alerts

Thanks for signing up!

Be on the lookout for a verification email in your inbox.

You'll start receiving the daily forecast at 6 AM.

×

10-Day Weather Forecast

Almanac

Astronomy

Jun. 23, 2017 Rise Set
Actual Time
Civil Twilight
Nautical Twilight
Astronomical Twilight
Moon
Length of Visible Light
Length of Day
Tomorrow will be .
, % of the Moon is Illuminated

Today's Extremes

State Highs State Lows

Community

WunderPhotos

Category 6

Welcome to Category 6. This is the collective home for Weather Underground's featured writeups by Dr. Jeff Masters (right), Bob Henson (left), Chris Burt, and other regular contributors.

Nearby

Air Quality

  Air Quality AQ Index Pollutant
Not available.

Snow Depth

Station Depth Elevation

Earthquake Activity

City Distance Mag. Time & Date
Minimum magnitude displayed is 2.5.

Coastal Water Temperatures

Place Temperature

Stations

Nearby Weather Stations

Station Location Temp. Windchill Dew Point Humidity Wind Precip. Elev Updated Type
                   

Watches & Warnings

There are currently no watches in effect.